Terminal Aerodrome Forecast
Issued by NWS Quad Cities IA IL

Home | Current Version | Previous Version | Text Only | Print | Product List | Glossary On
Versions: 1 2 3 4 5 6 7 8 9 10 11 12 13 14 15 16 17 18 19 20 21 22
000
FTUS43 KDVN 241800 AAA
TAFDBQ
TAF AMD
KDBQ 241808Z 2418/2518 28017G26KT P6SM VCSH BKN025
     FM242200 30013KT P6SM SCT030
     FM250400 33007KT P6SM SCT250
     FM251200 05004KT P6SM BKN100=

USA.gov is the U.S. government's official web portal to all federal, state and local government web resources and services.